sensor_id;sensor_type;location;lat;lon;timestamp;P1;durP1;ratioP1;P2;durP2;ratioP2
41875;SDS011;27555;50.808;4.402;2022-11-23T00:01:24;13.40;;;1.75;;
41875;SDS011;27555;50.808;4.402;2022-11-23T00:03:56;7.60;;;2.45;;
41875;SDS011;27555;50.808;4.402;2022-11-23T00:06:35;9.57;;;2.03;;
41875;SDS011;27555;50.808;4.402;2022-11-23T00:09:02;15.20;;;2.17;;
41875;SDS011;27555;50.808;4.402;2022-11-23T00:11:32;16.33;;;2.05;;
41875;SDS011;27555;50.808;4.402;2022-11-23T00:14:01;9.80;;;1.80;;
41875;SDS011;27555;50.808;4.402;2022-11-23T00:16:29;9.40;;;2.08;;
41875;SDS011;27555;50.808;4.402;2022-11-23T00:18:56;17.25;;;2.60;;
41875;SDS011;27555;50.808;4.402;2022-11-23T00:21:23;12.07;;;2.90;;
41875;SDS011;27555;50.808;4.402;2022-11-23T00:23:51;14.15;;;2.58;;
41875;SDS011;27555;50.808;4.402;2022-11-23T00:26:20;7.78;;;1.92;;
41875;SDS011;27555;50.808;4.402;2022-11-23T00:28:46;10.82;;;1.67;;
41875;SDS011;27555;50.808;4.402;2022-11-23T00:31:14;12.27;;;1.73;;
41875;SDS011;27555;50.808;4.402;2022-11-23T00:33:42;16.55;;;2.35;;
41875;SDS011;27555;50.808;4.402;2022-11-23T00:36:15;14.38;;;1.77;;
41875;SDS011;27555;50.808;4.402;2022-11-23T00:38:43;12.02;;;1.75;;
41875;SDS011;27555;50.808;4.402;2022-11-23T00:41:11;16.85;;;2.55;;
41875;SDS011;27555;50.808;4.402;2022-11-23T00:43:38;7.43;;;1.63;;
41875;SDS011;27555;50.808;4.402;2022-11-23T00:46:12;17.05;;;2.90;;
41875;SDS011;27555;50.808;4.402;2022-11-23T00:48:46;15.48;;;1.48;;
41875;SDS011;27555;50.808;4.402;2022-11-23T00:51:17;15.20;;;2.55;;
41875;SDS011;27555;50.808;4.402;2022-11-23T00:53:48;20.50;;;2.95;;
41875;SDS011;27555;50.808;4.402;2022-11-23T00:56:14;17.38;;;2.25;;
41875;SDS011;27555;50.808;4.402;2022-11-23T00:58:41;10.82;;;2.13;;
41875;SDS011;27555;50.808;4.402;2022-11-23T01:01:08;14.18;;;2.42;;
41875;SDS011;27555;50.808;4.402;2022-11-23T01:03:42;9.73;;;2.20;;
41875;SDS011;27555;50.808;4.402;2022-11-23T01:06:16;9.52;;;2.20;;
41875;SDS011;27555;50.808;4.402;2022-11-23T01:08:47;14.23;;;2.75;;
41875;SDS011;27555;50.808;4.402;2022-11-23T01:11:14;11.27;;;2.25;;
41875;SDS011;27555;50.808;4.402;2022-11-23T01:13:41;14.90;;;2.42;;
41875;SDS011;27555;50.808;4.402;2022-11-23T01:16:17;11.13;;;2.72;;
41875;SDS011;27555;50.808;4.402;2022-11-23T01:19:06;14.32;;;2.95;;
41875;SDS011;27555;50.808;4.402;2022-11-23T01:21:34;13.85;;;2.08;;
41875;SDS011;27555;50.808;4.402;2022-11-23T01:24:05;17.40;;;2.75;;
41875;SDS011;27555;50.808;4.402;2022-11-23T01:26:34;13.90;;;2.50;;
41875;SDS011;27555;50.808;4.402;2022-11-23T01:29:00;15.57;;;2.67;;
41875;SDS011;27555;50.808;4.402;2022-11-23T01:31:26;12.52;;;2.33;;
41875;SDS011;27555;50.808;4.402;2022-11-23T01:33:55;11.20;;;2.33;;
41875;SDS011;27555;50.808;4.402;2022-11-23T01:36:23;18.60;;;3.30;;
41875;SDS011;27555;50.808;4.402;2022-11-23T01:38:50;14.80;;;3.60;;
41875;SDS011;27555;50.808;4.402;2022-11-23T01:41:18;9.98;;;2.67;;
41875;SDS011;27555;50.808;4.402;2022-11-23T01:43:46;13.60;;;2.70;;
41875;SDS011;27555;50.808;4.402;2022-11-23T01:46:12;16.35;;;2.97;;
41875;SDS011;27555;50.808;4.402;2022-11-23T01:48:40;14.73;;;2.83;;
41875;SDS011;27555;50.808;4.402;2022-11-23T01:51:37;11.93;;;2.42;;
41875;SDS011;27555;50.808;4.402;2022-11-23T01:54:46;12.48;;;3.50;;
41875;SDS011;27555;50.808;4.402;2022-11-23T01:57:00;15.13;;;2.55;;
41875;SDS011;27555;50.808;4.402;2022-11-23T01:59:32;16.13;;;1.90;;
41875;SDS011;27555;50.808;4.402;2022-11-23T02:01:58;11.35;;;2.35;;
41875;SDS011;27555;50.808;4.402;2022-11-23T02:04:27;17.35;;;3.00;;
41875;SDS011;27555;50.808;4.402;2022-11-23T02:06:56;13.45;;;2.33;;
41875;SDS011;27555;50.808;4.402;2022-11-23T02:09:27;12.75;;;2.30;;
41875;SDS011;27555;50.808;4.402;2022-11-23T02:11:56;13.90;;;4.07;;
41875;SDS011;27555;50.808;4.402;2022-11-23T02:14:21;27.40;;;3.65;;
41875;SDS011;27555;50.808;4.402;2022-11-23T02:16:49;13.82;;;3.28;;
41875;SDS011;27555;50.808;4.402;2022-11-23T02:19:17;19.60;;;2.78;;
41875;SDS011;27555;50.808;4.402;2022-11-23T02:22:05;14.70;;;2.53;;
41875;SDS011;27555;50.808;4.402;2022-11-23T02:24:40;16.40;;;2.65;;
41875;SDS011;27555;50.808;4.402;2022-11-23T02:27:10;11.02;;;2.95;;
41875;SDS011;27555;50.808;4.402;2022-11-23T02:29:37;15.35;;;2.78;;
41875;SDS011;27555;50.808;4.402;2022-11-23T02:32:03;15.27;;;2.97;;
41875;SDS011;27555;50.808;4.402;2022-11-23T02:34:31;14.15;;;2.88;;
41875;SDS011;27555;50.808;4.402;2022-11-23T02:36:58;14.27;;;3.88;;
41875;SDS011;27555;50.808;4.402;2022-11-23T02:39:29;15.40;;;2.97;;
41875;SDS011;27555;50.808;4.402;2022-11-23T02:42:01;15.88;;;2.28;;
41875;SDS011;27555;50.808;4.402;2022-11-23T02:47:23;17.33;;;2.28;;
41875;SDS011;27555;50.808;4.402;2022-11-23T02:49:49;10.75;;;2.38;;
41875;SDS011;27555;50.808;4.402;2022-11-23T02:52:19;7.00;;;2.00;;
41875;SDS011;27555;50.808;4.402;2022-11-23T02:54:45;17.13;;;2.45;;
41875;SDS011;27555;50.808;4.402;2022-11-23T02:57:12;14.75;;;2.63;;
41875;SDS011;27555;50.808;4.402;2022-11-23T02:59:38;14.02;;;2.42;;
41875;SDS011;27555;50.808;4.402;2022-11-23T03:02:04;12.65;;;2.35;;
41875;SDS011;27555;50.808;4.402;2022-11-23T03:04:30;12.18;;;2.63;;
41875;SDS011;27555;50.808;4.402;2022-11-23T03:06:56;12.32;;;3.10;;
41875;SDS011;27555;50.808;4.402;2022-11-23T03:09:22;12.43;;;2.20;;
41875;SDS011;27555;50.808;4.402;2022-11-23T03:11:50;12.35;;;2.10;;
41875;SDS011;27555;50.808;4.402;2022-11-23T03:14:16;15.30;;;3.22;;
41875;SDS011;27555;50.808;4.402;2022-11-23T03:16:44;14.93;;;2.47;;
41875;SDS011;27555;50.808;4.402;2022-11-23T03:19:09;24.63;;;2.70;;
41875;SDS011;27555;50.808;4.402;2022-11-23T03:21:35;27.75;;;4.03;;
41875;SDS011;27555;50.808;4.402;2022-11-23T03:24:01;14.88;;;2.22;;
41875;SDS011;27555;50.808;4.402;2022-11-23T03:26:26;13.77;;;2.67;;
41875;SDS011;27555;50.808;4.402;2022-11-23T03:28:55;14.00;;;2.58;;
41875;SDS011;27555;50.808;4.402;2022-11-23T03:31:21;26.73;;;2.80;;
41875;SDS011;27555;50.808;4.402;2022-11-23T03:33:47;16.75;;;2.55;;
41875;SDS011;27555;50.808;4.402;2022-11-23T03:36:13;11.25;;;2.25;;
41875;SDS011;27555;50.808;4.402;2022-11-23T03:38:38;16.65;;;2.95;;
41875;SDS011;27555;50.808;4.402;2022-11-23T03:41:05;10.80;;;2.13;;
41875;SDS011;27555;50.808;4.402;2022-11-23T03:43:32;13.55;;;3.13;;
41875;SDS011;27555;50.808;4.402;2022-11-23T03:46:00;16.00;;;2.78;;
41875;SDS011;27555;50.808;4.402;2022-11-23T03:48:27;15.45;;;3.05;;
41875;SDS011;27555;50.808;4.402;2022-11-23T03:50:52;17.48;;;2.33;;
41875;SDS011;27555;50.808;4.402;2022-11-23T03:53:23;15.02;;;2.78;;
41875;SDS011;27555;50.808;4.402;2022-11-23T03:55:48;15.85;;;2.47;;
41875;SDS011;27555;50.808;4.402;2022-11-23T03:58:14;16.90;;;2.60;;
41875;SDS011;27555;50.808;4.402;2022-11-23T04:00:40;18.80;;;3.13;;
41875;SDS011;27555;50.808;4.402;2022-11-23T04:03:06;13.38;;;2.53;;
41875;SDS011;27555;50.808;4.402;2022-11-23T04:05:32;14.88;;;2.97;;
41875;SDS011;27555;50.808;4.402;2022-11-23T04:07:57;14.25;;;2.35;;
41875;SDS011;27555;50.808;4.402;2022-11-23T04:10:23;16.50;;;3.15;;
41875;SDS011;27555;50.808;4.402;2022-11-23T04:12:50;18.23;;;2.85;;
41875;SDS011;27555;50.808;4.402;2022-11-23T04:15:16;17.02;;;2.47;;
41875;SDS011;27555;50.808;4.402;2022-11-23T04:17:42;11.10;;;2.17;;
41875;SDS011;27555;50.808;4.402;2022-11-23T04:20:08;13.60;;;2.88;;
41875;SDS011;27555;50.808;4.402;2022-11-23T04:22:36;14.55;;;2.38;;
41875;SDS011;27555;50.808;4.402;2022-11-23T04:25:04;15.00;;;2.40;;
41875;SDS011;27555;50.808;4.402;2022-11-23T04:27:30;18.60;;;2.50;;
41875;SDS011;27555;50.808;4.402;2022-11-23T04:29:58;20.95;;;3.17;;
41875;SDS011;27555;50.808;4.402;2022-11-23T04:32:25;16.88;;;2.90;;
41875;SDS011;27555;50.808;4.402;2022-11-23T04:34:51;16.98;;;2.50;;
41875;SDS011;27555;50.808;4.402;2022-11-23T04:37:17;19.08;;;2.25;;
41875;SDS011;27555;50.808;4.402;2022-11-23T04:39:45;14.07;;;2.25;;
41875;SDS011;27555;50.808;4.402;2022-11-23T04:42:11;14.75;;;2.53;;
41875;SDS011;27555;50.808;4.402;2022-11-23T04:44:38;11.88;;;2.08;;
41875;SDS011;27555;50.808;4.402;2022-11-23T04:47:03;13.63;;;1.80;;
41875;SDS011;27555;50.808;4.402;2022-11-23T04:49:30;10.45;;;2.00;;
41875;SDS011;27555;50.808;4.402;2022-11-23T04:51:59;14.93;;;3.20;;
41875;SDS011;27555;50.808;4.402;2022-11-23T04:54:26;16.13;;;2.40;;
41875;SDS011;27555;50.808;4.402;2022-11-23T04:56:53;20.25;;;2.20;;
41875;SDS011;27555;50.808;4.402;2022-11-23T04:59:20;10.85;;;2.50;;
41875;SDS011;27555;50.808;4.402;2022-11-23T05:01:47;11.02;;;2.65;;
41875;SDS011;27555;50.808;4.402;2022-11-23T05:04:16;16.92;;;2.00;;
41875;SDS011;27555;50.808;4.402;2022-11-23T05:06:43;16.20;;;2.95;;
41875;SDS011;27555;50.808;4.402;2022-11-23T05:09:13;9.45;;;1.65;;
41875;SDS011;27555;50.808;4.402;2022-11-23T05:11:42;12.05;;;2.40;;
41875;SDS011;27555;50.808;4.402;2022-11-23T05:14:10;27.48;;;4.07;;
41875;SDS011;27555;50.808;4.402;2022-11-23T05:16:36;16.20;;;2.10;;
41875;SDS011;27555;50.808;4.402;2022-11-23T05:19:02;13.27;;;2.00;;
41875;SDS011;27555;50.808;4.402;2022-11-23T05:21:28;16.27;;;2.72;;
41875;SDS011;27555;50.808;4.402;2022-11-23T05:23:53;14.95;;;2.63;;
41875;SDS011;27555;50.808;4.402;2022-11-23T05:26:19;15.57;;;2.47;;
41875;SDS011;27555;50.808;4.402;2022-11-23T05:28:44;14.68;;;2.50;;
41875;SDS011;27555;50.808;4.402;2022-11-23T05:31:10;21.50;;;3.42;;
41875;SDS011;27555;50.808;4.402;2022-11-23T05:33:37;18.15;;;2.75;;
41875;SDS011;27555;50.808;4.402;2022-11-23T05:36:03;13.55;;;2.78;;
41875;SDS011;27555;50.808;4.402;2022-11-23T05:38:29;23.30;;;2.47;;
41875;SDS011;27555;50.808;4.402;2022-11-23T05:40:56;17.10;;;2.85;;
41875;SDS011;27555;50.808;4.402;2022-11-23T05:43:21;16.60;;;2.20;;
41875;SDS011;27555;50.808;4.402;2022-11-23T05:45:47;12.90;;;1.98;;
41875;SDS011;27555;50.808;4.402;2022-11-23T05:48:13;14.82;;;1.90;;
41875;SDS011;27555;50.808;4.402;2022-11-23T05:50:39;11.68;;;2.25;;
41875;SDS011;27555;50.808;4.402;2022-11-23T05:53:06;16.85;;;2.40;;
41875;SDS011;27555;50.808;4.402;2022-11-23T05:55:37;11.25;;;2.03;;
41875;SDS011;27555;50.808;4.402;2022-11-23T05:58:03;16.55;;;2.60;;
41875;SDS011;27555;50.808;4.402;2022-11-23T06:00:28;16.00;;;2.63;;
41875;SDS011;27555;50.808;4.402;2022-11-23T06:03:00;16.65;;;3.17;;
41875;SDS011;27555;50.808;4.402;2022-11-23T06:05:27;7.45;;;1.50;;
41875;SDS011;27555;50.808;4.402;2022-11-23T06:08:03;13.20;;;2.17;;
41875;SDS011;27555;50.808;4.402;2022-11-23T06:10:29;26.85;;;4.32;;
41875;SDS011;27555;50.808;4.402;2022-11-23T06:13:00;14.02;;;1.90;;
41875;SDS011;27555;50.808;4.402;2022-11-23T06:15:28;18.42;;;2.17;;
41875;SDS011;27555;50.808;4.402;2022-11-23T06:17:57;12.77;;;2.30;;
41875;SDS011;27555;50.808;4.402;2022-11-23T06:20:23;19.77;;;2.35;;
41875;SDS011;27555;50.808;4.402;2022-11-23T06:22:52;14.00;;;3.05;;
41875;SDS011;27555;50.808;4.402;2022-11-23T06:25:19;24.00;;;2.58;;
41875;SDS011;27555;50.808;4.402;2022-11-23T06:27:57;15.55;;;2.38;;
41875;SDS011;27555;50.808;4.402;2022-11-23T06:30:25;14.07;;;2.80;;
41875;SDS011;27555;50.808;4.402;2022-11-23T06:32:54;27.20;;;3.73;;
41875;SDS011;27555;50.808;4.402;2022-11-23T06:35:22;13.88;;;2.30;;
41875;SDS011;27555;50.808;4.402;2022-11-23T06:37:50;14.68;;;3.60;;
41875;SDS011;27555;50.808;4.402;2022-11-23T06:40:19;9.57;;;2.55;;
41875;SDS011;27555;50.808;4.402;2022-11-23T06:42:49;17.33;;;2.50;;
41875;SDS011;27555;50.808;4.402;2022-11-23T06:45:15;18.25;;;2.35;;
41875;SDS011;27555;50.808;4.402;2022-11-23T06:47:41;16.17;;;2.67;;
41875;SDS011;27555;50.808;4.402;2022-11-23T06:50:07;13.02;;;2.53;;
41875;SDS011;27555;50.808;4.402;2022-11-23T06:52:33;16.60;;;3.50;;
41875;SDS011;27555;50.808;4.402;2022-11-23T06:54:59;23.95;;;3.00;;
41875;SDS011;27555;50.808;4.402;2022-11-23T06:57:24;22.30;;;3.47;;
41875;SDS011;27555;50.808;4.402;2022-11-23T06:59:50;17.92;;;3.03;;
41875;SDS011;27555;50.808;4.402;2022-11-23T07:02:16;19.85;;;3.05;;
41875;SDS011;27555;50.808;4.402;2022-11-23T07:04:41;14.85;;;3.00;;
41875;SDS011;27555;50.808;4.402;2022-11-23T07:07:08;17.48;;;2.45;;
41875;SDS011;27555;50.808;4.402;2022-11-23T07:09:34;15.48;;;2.65;;
41875;SDS011;27555;50.808;4.402;2022-11-23T07:12:00;9.82;;;1.95;;
41875;SDS011;27555;50.808;4.402;2022-11-23T07:14:27;15.18;;;2.35;;
41875;SDS011;27555;50.808;4.402;2022-11-23T07:16:52;17.52;;;3.50;;
41875;SDS011;27555;50.808;4.402;2022-11-23T07:19:18;19.63;;;2.53;;
41875;SDS011;27555;50.808;4.402;2022-11-23T07:21:44;21.27;;;3.70;;
41875;SDS011;27555;50.808;4.402;2022-11-23T07:24:10;18.45;;;2.63;;
41875;SDS011;27555;50.808;4.402;2022-11-23T07:26:35;17.15;;;3.42;;
41875;SDS011;27555;50.808;4.402;2022-11-23T07:29:01;10.40;;;2.15;;
41875;SDS011;27555;50.808;4.402;2022-11-23T07:31:26;17.17;;;3.72;;
41875;SDS011;27555;50.808;4.402;2022-11-23T07:33:52;21.25;;;2.83;;
41875;SDS011;27555;50.808;4.402;2022-11-23T07:36:18;12.02;;;2.72;;
41875;SDS011;27555;50.808;4.402;2022-11-23T07:38:43;14.85;;;3.15;;
41875;SDS011;27555;50.808;4.402;2022-11-23T07:41:09;21.40;;;3.72;;
41875;SDS011;27555;50.808;4.402;2022-11-23T07:43:35;25.77;;;3.13;;
41875;SDS011;27555;50.808;4.402;2022-11-23T07:46:00;18.13;;;3.58;;
41875;SDS011;27555;50.808;4.402;2022-11-23T07:48:26;13.25;;;2.60;;
41875;SDS011;27555;50.808;4.402;2022-11-23T07:50:52;21.92;;;3.05;;
41875;SDS011;27555;50.808;4.402;2022-11-23T07:53:18;16.83;;;2.90;;
41875;SDS011;27555;50.808;4.402;2022-11-23T07:55:44;10.57;;;2.05;;
41875;SDS011;27555;50.808;4.402;2022-11-23T07:58:10;19.50;;;2.67;;
41875;SDS011;27555;50.808;4.402;2022-11-23T08:00:36;17.10;;;2.85;;
41875;SDS011;27555;50.808;4.402;2022-11-23T08:03:02;19.13;;;3.03;;
41875;SDS011;27555;50.808;4.402;2022-11-23T08:05:30;18.95;;;3.00;;
41875;SDS011;27555;50.808;4.402;2022-11-23T08:07:57;13.82;;;2.33;;
41875;SDS011;27555;50.808;4.402;2022-11-23T08:10:25;11.60;;;3.13;;
41875;SDS011;27555;50.808;4.402;2022-11-23T08:12:58;19.63;;;3.08;;
41875;SDS011;27555;50.808;4.402;2022-11-23T08:15:25;13.35;;;2.45;;
41875;SDS011;27555;50.808;4.402;2022-11-23T08:17:57;10.55;;;2.40;;
41875;SDS011;27555;50.808;4.402;2022-11-23T08:20:24;15.95;;;2.63;;
41875;SDS011;27555;50.808;4.402;2022-11-23T08:22:50;10.40;;;2.05;;
41875;SDS011;27555;50.808;4.402;2022-11-23T08:25:16;14.65;;;2.47;;
41875;SDS011;27555;50.808;4.402;2022-11-23T08:27:42;9.40;;;2.15;;
41875;SDS011;27555;50.808;4.402;2022-11-23T08:30:08;13.43;;;3.42;;
41875;SDS011;27555;50.808;4.402;2022-11-23T08:32:34;9.68;;;1.90;;
41875;SDS011;27555;50.808;4.402;2022-11-23T08:34:59;8.48;;;1.95;;
41875;SDS011;27555;50.808;4.402;2022-11-23T08:37:25;14.25;;;2.25;;
41875;SDS011;27555;50.808;4.402;2022-11-23T08:39:51;12.45;;;1.83;;
41875;SDS011;27555;50.808;4.402;2022-11-23T08:42:16;7.15;;;1.80;;
41875;SDS011;27555;50.808;4.402;2022-11-23T08:44:42;7.40;;;1.85;;
41875;SDS011;27555;50.808;4.402;2022-11-23T08:47:07;11.95;;;2.90;;
41875;SDS011;27555;50.808;4.402;2022-11-23T08:49:33;7.55;;;2.00;;
41875;SDS011;27555;50.808;4.402;2022-11-23T08:51:58;12.25;;;1.90;;
41875;SDS011;27555;50.808;4.402;2022-11-23T08:54:25;16.45;;;2.17;;
41875;SDS011;27555;50.808;4.402;2022-11-23T08:56:51;13.57;;;2.88;;
41875;SDS011;27555;50.808;4.402;2022-11-23T08:59:16;10.25;;;2.05;;
41875;SDS011;27555;50.808;4.402;2022-11-23T09:01:43;6.22;;;1.95;;
41875;SDS011;27555;50.808;4.402;2022-11-23T09:04:09;7.97;;;1.70;;
41875;SDS011;27555;50.808;4.402;2022-11-23T09:06:35;10.63;;;1.75;;
41875;SDS011;27555;50.808;4.402;2022-11-23T09:09:00;12.00;;;1.83;;
41875;SDS011;27555;50.808;4.402;2022-11-23T09:11:27;8.32;;;2.15;;
41875;SDS011;27555;50.808;4.402;2022-11-23T09:13:52;8.45;;;1.90;;
41875;SDS011;27555;50.808;4.402;2022-11-23T09:16:18;7.93;;;2.13;;
41875;SDS011;27555;50.808;4.402;2022-11-23T09:18:44;6.70;;;1.77;;
41875;SDS011;27555;50.808;4.402;2022-11-23T09:21:10;13.68;;;2.47;;
41875;SDS011;27555;50.808;4.402;2022-11-23T09:23:36;7.78;;;2.05;;
41875;SDS011;27555;50.808;4.402;2022-11-23T09:26:02;10.40;;;2.42;;
41875;SDS011;27555;50.808;4.402;2022-11-23T09:28:29;11.80;;;2.13;;
41875;SDS011;27555;50.808;4.402;2022-11-23T09:30:56;10.38;;;2.00;;
41875;SDS011;27555;50.808;4.402;2022-11-23T09:33:22;7.53;;;2.15;;
41875;SDS011;27555;50.808;4.402;2022-11-23T09:35:58;10.93;;;2.63;;
41875;SDS011;27555;50.808;4.402;2022-11-23T09:38:25;7.43;;;1.75;;
41875;SDS011;27555;50.808;4.402;2022-11-23T09:40:58;14.68;;;2.85;;
41875;SDS011;27555;50.808;4.402;2022-11-23T09:43:42;13.77;;;2.22;;
41875;SDS011;27555;50.808;4.402;2022-11-23T09:46:20;11.45;;;1.95;;
41875;SDS011;27555;50.808;4.402;2022-11-23T09:51:33;7.95;;;1.60;;
41875;SDS011;27555;50.808;4.402;2022-11-23T09:54:03;8.50;;;1.48;;
41875;SDS011;27555;50.808;4.402;2022-11-23T09:56:35;7.40;;;2.28;;
41875;SDS011;27555;50.808;4.402;2022-11-23T09:59:10;5.45;;;1.63;;
41875;SDS011;27555;50.808;4.402;2022-11-23T10:01:47;7.38;;;1.55;;
41875;SDS011;27555;50.808;4.402;2022-11-23T10:04:17;7.68;;;1.45;;
41875;SDS011;27555;50.808;4.402;2022-11-23T10:06:44;9.65;;;2.47;;
41875;SDS011;27555;50.808;4.402;2022-11-23T10:10:25;5.15;;;1.00;;
41875;SDS011;27555;50.808;4.402;2022-11-23T10:23:00;7.47;;;1.77;;
41875;SDS011;27555;50.808;4.402;2022-11-23T10:25:31;5.30;;;1.08;;
41875;SDS011;27555;50.808;4.402;2022-11-23T10:28:09;10.45;;;1.20;;
41875;SDS011;27555;50.808;4.402;2022-11-23T10:30:38;4.30;;;1.38;;
41875;SDS011;27555;50.808;4.402;2022-11-23T10:33:16;5.88;;;1.20;;
41875;SDS011;27555;50.808;4.402;2022-11-23T10:35:45;10.10;;;1.42;;
41875;SDS011;27555;50.808;4.402;2022-11-23T10:38:13;7.85;;;1.55;;
41875;SDS011;27555;50.808;4.402;2022-11-23T10:43:25;11.85;;;1.60;;
41875;SDS011;27555;50.808;4.402;2022-11-23T10:46:21;8.50;;;1.35;;
41875;SDS011;27555;50.808;4.402;2022-11-23T10:48:51;8.75;;;2.88;;
41875;SDS011;27555;50.808;4.402;2022-11-23T10:51:22;7.40;;;1.33;;
41875;SDS011;27555;50.808;4.402;2022-11-23T10:53:51;5.97;;;1.70;;
41875;SDS011;27555;50.808;4.402;2022-11-23T10:56:19;11.15;;;1.85;;
41875;SDS011;27555;50.808;4.402;2022-11-23T10:58:45;5.72;;;1.45;;
41875;SDS011;27555;50.808;4.402;2022-11-23T11:03:37;7.50;;;1.40;;
41875;SDS011;27555;50.808;4.402;2022-11-23T11:06:02;5.50;;;1.38;;
41875;SDS011;27555;50.808;4.402;2022-11-23T11:08:31;7.72;;;1.30;;
41875;SDS011;27555;50.808;4.402;2022-11-23T11:11:09;6.40;;;1.17;;
41875;SDS011;27555;50.808;4.402;2022-11-23T11:13:46;4.50;;;1.25;;
41875;SDS011;27555;50.808;4.402;2022-11-23T11:18:46;5.07;;;1.15;;
41875;SDS011;27555;50.808;4.402;2022-11-23T11:24:12;12.90;;;1.40;;
41875;SDS011;27555;50.808;4.402;2022-11-23T11:26:49;10.13;;;1.33;;
41875;SDS011;27555;50.808;4.402;2022-11-23T11:29:51;14.82;;;2.13;;
41875;SDS011;27555;50.808;4.402;2022-11-23T11:37:39;7.35;;;1.20;;
41875;SDS011;27555;50.808;4.402;2022-11-23T11:43:01;9.55;;;4.13;;
41875;SDS011;27555;50.808;4.402;2022-11-23T11:45:50;7.43;;;1.27;;
41875;SDS011;27555;50.808;4.402;2022-11-23T11:48:42;4.25;;;1.00;;
41875;SDS011;27555;50.808;4.402;2022-11-23T11:51:24;9.60;;;1.73;;
41875;SDS011;27555;50.808;4.402;2022-11-23T11:54:02;6.85;;;1.23;;
41875;SDS011;27555;50.808;4.402;2022-11-23T11:56:53;8.57;;;0.85;;
41875;SDS011;27555;50.808;4.402;2022-11-23T11:59:32;8.05;;;1.10;;
41875;SDS011;27555;50.808;4.402;2022-11-23T12:02:21;7.00;;;1.08;;
41875;SDS011;27555;50.808;4.402;2022-11-23T12:07:28;6.50;;;1.15;;
41875;SDS011;27555;50.808;4.402;2022-11-23T12:10:20;5.50;;;1.50;;
41875;SDS011;27555;50.808;4.402;2022-11-23T12:12:51;4.38;;;0.80;;
41875;SDS011;27555;50.808;4.402;2022-11-23T12:15:20;2.55;;;0.90;;
41875;SDS011;27555;50.808;4.402;2022-11-23T12:21:04;1.90;;;0.77;;
41875;SDS011;27555;50.808;4.402;2022-11-23T12:31:49;6.43;;;0.80;;
41875;SDS011;27555;50.808;4.402;2022-11-23T12:37:23;4.25;;;0.77;;
41875;SDS011;27555;50.808;4.402;2022-11-23T12:54:12;4.40;;;1.10;;
41875;SDS011;27555;50.808;4.402;2022-11-23T12:59:42;3.53;;;1.10;;
41875;SDS011;27555;50.808;4.402;2022-11-23T13:11:17;4.22;;;1.10;;
41875;SDS011;27555;50.808;4.402;2022-11-23T13:22:19;2.60;;;0.90;;
41875;SDS011;27555;50.808;4.402;2022-11-23T13:42:50;3.25;;;1.08;;
41875;SDS011;27555;50.808;4.402;2022-11-23T13:53:20;2.17;;;0.88;;
41875;SDS011;27555;50.808;4.402;2022-11-23T13:55:53;3.47;;;0.60;;
41875;SDS011;27555;50.808;4.402;2022-11-23T14:00:49;2.83;;;0.70;;
41875;SDS011;27555;50.808;4.402;2022-11-23T14:06:13;3.75;;;1.35;;
41875;SDS011;27555;50.808;4.402;2022-11-23T14:11:59;8.88;;;1.15;;
41875;SDS011;27555;50.808;4.402;2022-11-23T14:42:52;3.05;;;0.95;;
41875;SDS011;27555;50.808;4.402;2022-11-23T14:47:54;3.40;;;0.85;;
41875;SDS011;27555;50.808;4.402;2022-11-23T14:50:21;4.72;;;1.75;;
41875;SDS011;27555;50.808;4.402;2022-11-23T14:52:49;5.80;;;0.98;;
41875;SDS011;27555;50.808;4.402;2022-11-23T14:55:18;1.15;;;0.80;;
41875;SDS011;27555;50.808;4.402;2022-11-23T14:57:47;2.45;;;0.90;;
41875;SDS011;27555;50.808;4.402;2022-11-23T15:00:25;3.15;;;1.05;;
41875;SDS011;27555;50.808;4.402;2022-11-23T15:03:04;6.82;;;1.35;;
41875;SDS011;27555;50.808;4.402;2022-11-23T15:05:39;4.00;;;1.08;;
41875;SDS011;27555;50.808;4.402;2022-11-23T15:08:26;4.53;;;1.15;;
41875;SDS011;27555;50.808;4.402;2022-11-23T15:13:50;3.83;;;1.00;;
41875;SDS011;27555;50.808;4.402;2022-11-23T15:16:18;3.13;;;0.93;;
41875;SDS011;27555;50.808;4.402;2022-11-23T15:18:45;1.80;;;0.90;;
41875;SDS011;27555;50.808;4.402;2022-11-23T15:21:19;3.30;;;1.00;;
41875;SDS011;27555;50.808;4.402;2022-11-23T15:23:52;5.57;;;1.00;;
41875;SDS011;27555;50.808;4.402;2022-11-23T15:26:22;4.43;;;1.00;;
41875;SDS011;27555;50.808;4.402;2022-11-23T15:28:51;4.75;;;1.35;;
41875;SDS011;27555;50.808;4.402;2022-11-23T15:33:52;8.25;;;1.30;;
41875;SDS011;27555;50.808;4.402;2022-11-23T15:36:23;3.47;;;1.13;;
41875;SDS011;27555;50.808;4.402;2022-11-23T15:38:55;3.40;;;1.15;;
41875;SDS011;27555;50.808;4.402;2022-11-23T15:41:23;3.05;;;1.30;;
41875;SDS011;27555;50.808;4.402;2022-11-23T15:44:14;3.50;;;1.52;;
41875;SDS011;27555;50.808;4.402;2022-11-23T15:47:33;3.83;;;1.20;;
41875;SDS011;27555;50.808;4.402;2022-11-23T15:49:44;8.88;;;1.60;;
41875;SDS011;27555;50.808;4.402;2022-11-23T15:52:17;7.05;;;1.92;;
41875;SDS011;27555;50.808;4.402;2022-11-23T15:54:44;6.82;;;3.00;;
41875;SDS011;27555;50.808;4.402;2022-11-23T15:57:20;3.10;;;1.33;;
41875;SDS011;27555;50.808;4.402;2022-11-23T15:59:49;4.03;;;1.20;;
41875;SDS011;27555;50.808;4.402;2022-11-23T16:02:22;6.68;;;2.22;;
41875;SDS011;27555;50.808;4.402;2022-11-23T16:05:02;6.80;;;1.38;;
41875;SDS011;27555;50.808;4.402;2022-11-23T16:07:39;3.42;;;1.60;;
41875;SDS011;27555;50.808;4.402;2022-11-23T16:12:53;7.70;;;1.97;;
41875;SDS011;27555;50.808;4.402;2022-11-23T16:20:55;9.07;;;2.25;;
41875;SDS011;27555;50.808;4.402;2022-11-23T16:23:39;4.68;;;2.25;;
41875;SDS011;27555;50.808;4.402;2022-11-23T16:26:10;6.07;;;1.40;;
41875;SDS011;27555;50.808;4.402;2022-11-23T16:28:38;8.68;;;2.15;;
41875;SDS011;27555;50.808;4.402;2022-11-23T16:34:08;9.35;;;3.40;;
41875;SDS011;27555;50.808;4.402;2022-11-23T16:36:39;7.25;;;2.10;;
41875;SDS011;27555;50.808;4.402;2022-11-23T16:39:04;4.28;;;1.70;;
41875;SDS011;27555;50.808;4.402;2022-11-23T16:41:30;8.07;;;2.47;;
41875;SDS011;27555;50.808;4.402;2022-11-23T16:43:57;8.60;;;2.65;;
41875;SDS011;27555;50.808;4.402;2022-11-23T16:46:22;9.13;;;3.10;;
41875;SDS011;27555;50.808;4.402;2022-11-23T16:48:48;10.15;;;2.33;;
41875;SDS011;27555;50.808;4.402;2022-11-23T16:51:13;14.95;;;3.45;;
41875;SDS011;27555;50.808;4.402;2022-11-23T16:53:40;10.20;;;2.60;;
41875;SDS011;27555;50.808;4.402;2022-11-23T16:56:08;13.80;;;2.88;;
41875;SDS011;27555;50.808;4.402;2022-11-23T17:01:03;14.43;;;2.70;;
41875;SDS011;27555;50.808;4.402;2022-11-23T17:03:29;8.20;;;2.55;;
41875;SDS011;27555;50.808;4.402;2022-11-23T17:05:54;10.70;;;3.38;;
41875;SDS011;27555;50.808;4.402;2022-11-23T17:08:20;17.50;;;7.13;;
41875;SDS011;27555;50.808;4.402;2022-11-23T17:10:46;12.57;;;2.75;;
41875;SDS011;27555;50.808;4.402;2022-11-23T17:13:31;18.15;;;3.97;;
41875;SDS011;27555;50.808;4.402;2022-11-23T17:15:57;12.30;;;4.13;;
41875;SDS011;27555;50.808;4.402;2022-11-23T17:18:23;9.27;;;2.83;;
41875;SDS011;27555;50.808;4.402;2022-11-23T17:20:48;18.83;;;3.80;;
41875;SDS011;27555;50.808;4.402;2022-11-23T17:23:14;18.23;;;3.70;;
41875;SDS011;27555;50.808;4.402;2022-11-23T17:25:40;17.23;;;3.83;;
41875;SDS011;27555;50.808;4.402;2022-11-23T17:28:10;18.02;;;5.32;;
41875;SDS011;27555;50.808;4.402;2022-11-23T17:30:39;27.35;;;5.75;;
41875;SDS011;27555;50.808;4.402;2022-11-23T17:33:07;13.70;;;4.13;;
41875;SDS011;27555;50.808;4.402;2022-11-23T17:35:34;18.10;;;4.38;;
41875;SDS011;27555;50.808;4.402;2022-11-23T17:38:00;17.23;;;4.05;;
41875;SDS011;27555;50.808;4.402;2022-11-23T17:40:26;23.75;;;5.95;;
41875;SDS011;27555;50.808;4.402;2022-11-23T17:42:52;19.27;;;5.75;;